createdAt,value
2022-10-08T00:00:47.351Z,7.00
2022-10-08T00:03:14.776Z,7.47
2022-10-08T00:05:41.855Z,7.93
2022-10-08T00:08:09.489Z,7.50
2022-10-08T00:10:37.392Z,7.73
2022-10-08T00:13:05.183Z,7.57
2022-10-08T00:15:36.926Z,7.77
2022-10-08T00:18:04.000Z,7.43
2022-10-08T00:20:31.040Z,7.33
2022-10-08T00:22:58.098Z,6.83
2022-10-08T00:25:25.135Z,6.90
2022-10-08T00:27:52.192Z,7.23
2022-10-08T00:30:19.515Z,6.70
2022-10-08T00:32:46.721Z,7.33
2022-10-08T00:35:14.003Z,6.77
2022-10-08T00:37:41.029Z,6.40
2022-10-08T00:40:08.245Z,6.67
2022-10-08T00:42:35.576Z,6.07
2022-10-08T00:45:02.644Z,6.17
2022-10-08T00:47:47.724Z,6.67
2022-10-08T00:50:20.993Z,6.53
2022-10-08T00:53:02.932Z,5.83
2022-10-08T00:55:30.739Z,6.07
2022-10-08T00:58:01.962Z,7.13
2022-10-08T01:00:29.649Z,6.77
2022-10-08T01:02:57.177Z,7.13
2022-10-08T01:05:33.333Z,7.37
2022-10-08T01:08:06.279Z,6.70
2022-10-08T01:10:38.262Z,6.70
2022-10-08T01:13:20.264Z,6.70
2022-10-08T01:15:50.216Z,6.40
2022-10-08T01:18:17.224Z,6.53
2022-10-08T01:20:53.185Z,7.00
2022-10-08T01:23:26.388Z,7.20
2022-10-08T01:25:56.730Z,6.37
2022-10-08T01:28:23.775Z,7.03
2022-10-08T01:30:54.143Z,7.33
2022-10-08T01:33:24.378Z,7.00
2022-10-08T01:35:54.025Z,7.20
2022-10-08T01:38:23.166Z,7.13
2022-10-08T01:40:52.851Z,7.17
2022-10-08T01:43:22.219Z,7.13
2022-10-08T01:45:52.757Z,7.00
2022-10-08T01:48:23.024Z,7.20
2022-10-08T01:50:58.647Z,6.90
2022-10-08T01:53:28.005Z,7.33
2022-10-08T01:55:56.733Z,6.53
2022-10-08T01:58:32.407Z,7.60
2022-10-08T02:01:03.394Z,7.37
2022-10-08T02:03:30.510Z,7.17
2022-10-08T02:06:00.260Z,7.40
2022-10-08T02:08:27.731Z,7.70
2022-10-08T02:10:54.975Z,7.90
2022-10-08T02:13:22.244Z,7.63
2022-10-08T02:15:53.071Z,7.43
2022-10-08T02:18:23.530Z,7.33
2022-10-08T02:20:59.726Z,7.47
2022-10-08T02:23:32.904Z,7.57
2022-10-08T02:26:00.820Z,7.90
2022-10-08T02:28:37.145Z,7.70
2022-10-08T02:31:14.095Z,6.93
2022-10-08T02:33:45.890Z,7.87
2022-10-08T02:36:14.478Z,7.37
2022-10-08T02:38:46.029Z,7.57
2022-10-08T02:41:13.992Z,7.70
2022-10-08T02:43:44.826Z,7.90
2022-10-08T02:46:15.041Z,7.40
2022-10-08T02:48:44.149Z,7.83
2022-10-08T02:51:13.398Z,7.70
2022-10-08T02:53:41.040Z,7.50
2022-10-08T02:56:11.163Z,8.30
2022-10-08T02:58:38.431Z,7.90
2022-10-08T03:01:17.684Z,7.70
2022-10-08T03:03:49.889Z,7.77
2022-10-08T03:06:18.486Z,7.90
2022-10-08T03:08:49.049Z,7.80
2022-10-08T03:11:16.434Z,8.90
2022-10-08T03:13:46.288Z,8.10
2022-10-08T03:16:14.964Z,7.97
2022-10-08T03:18:42.322Z,7.70
2022-10-08T03:21:10.540Z,7.70
2022-10-08T03:23:37.584Z,7.93
2022-10-08T03:26:04.641Z,7.47
2022-10-08T03:28:31.824Z,7.37
2022-10-08T03:30:59.155Z,8.00
2022-10-08T03:33:26.564Z,7.73
2022-10-08T03:35:53.595Z,7.70
2022-10-08T03:38:20.617Z,7.77
2022-10-08T03:40:54.775Z,8.07
2022-10-08T03:43:22.180Z,7.47
2022-10-08T03:45:52.619Z,8.40
2022-10-08T03:48:20.118Z,7.30
2022-10-08T03:50:54.731Z,7.57
2022-10-08T03:53:22.309Z,7.73
2022-10-08T03:55:49.610Z,8.00
2022-10-08T03:58:16.896Z,7.73
2022-10-08T04:00:44.083Z,7.57
2022-10-08T04:03:11.481Z,8.13
2022-10-08T04:05:38.577Z,7.83
2022-10-08T04:08:05.635Z,7.90
2022-10-08T04:10:32.692Z,7.33
2022-10-08T04:12:59.734Z,8.70
2022-10-08T04:15:26.787Z,7.73
2022-10-08T04:17:53.870Z,8.33
2022-10-08T04:20:20.896Z,8.40
2022-10-08T04:22:49.000Z,8.23
2022-10-08T04:25:16.370Z,8.57
2022-10-08T04:27:43.448Z,8.20
2022-10-08T04:30:10.809Z,8.07
2022-10-08T04:32:37.842Z,8.33
2022-10-08T04:35:05.035Z,8.67
2022-10-08T04:37:32.076Z,8.17
2022-10-08T04:39:59.104Z,7.63
2022-10-08T04:42:26.407Z,8.40
2022-10-08T04:44:53.534Z,7.87
2022-10-08T04:47:20.585Z,8.53
2022-10-08T04:49:47.678Z,8.10
2022-10-08T04:52:17.168Z,7.63
2022-10-08T04:54:44.193Z,7.63
2022-10-08T04:57:11.246Z,7.43
2022-10-08T04:59:49.200Z,7.43
2022-10-08T05:02:25.341Z,7.57
2022-10-08T05:04:52.784Z,7.83
2022-10-08T05:07:19.883Z,8.00
2022-10-08T05:09:46.903Z,8.07
2022-10-08T05:12:13.943Z,8.10
2022-10-08T05:14:41.130Z,8.27
2022-10-08T05:17:08.268Z,8.30
2022-10-08T05:19:35.434Z,7.90
2022-10-08T05:22:02.500Z,7.63
2022-10-08T05:24:29.600Z,7.80
2022-10-08T05:26:59.056Z,8.50
2022-10-08T05:29:28.339Z,7.70
2022-10-08T05:31:55.387Z,8.60
2022-10-08T05:34:22.503Z,8.30
2022-10-08T05:36:49.558Z,7.63
2022-10-08T05:39:16.777Z,8.30
2022-10-08T05:41:43.888Z,8.43
2022-10-08T05:44:11.375Z,7.70
2022-10-08T05:46:39.460Z,7.90
2022-10-08T05:49:07.820Z,7.53
2022-10-08T05:51:35.311Z,8.80
2022-10-08T05:54:02.427Z,8.37
2022-10-08T05:56:31.442Z,7.93
2022-10-08T05:58:58.474Z,9.20
2022-10-08T06:01:30.745Z,8.77
2022-10-08T06:03:58.960Z,8.50
2022-10-08T06:06:26.223Z,8.97
2022-10-08T06:08:58.762Z,8.40
2022-10-08T06:11:29.402Z,8.77
2022-10-08T06:13:57.018Z,9.57
2022-10-08T06:16:24.241Z,9.30
2022-10-08T06:18:51.302Z,9.07
2022-10-08T06:21:22.031Z,9.30
2022-10-08T06:23:54.011Z,9.90
2022-10-08T06:26:22.403Z,9.13
2022-10-08T06:28:50.179Z,9.37
2022-10-08T06:31:17.571Z,9.20
2022-10-08T06:33:44.752Z,9.97
2022-10-08T06:36:14.823Z,9.43
2022-10-08T06:38:41.851Z,9.30
2022-10-08T06:41:08.912Z,9.17
2022-10-08T06:43:36.206Z,9.97
2022-10-08T06:46:06.667Z,9.53
2022-10-08T06:48:34.073Z,9.43
2022-10-08T06:51:01.083Z,9.93
2022-10-08T06:53:28.449Z,10.13
2022-10-08T06:55:59.301Z,10.27
2022-10-08T06:58:26.337Z,9.53
2022-10-08T07:01:10.779Z,9.70
2022-10-08T07:03:38.201Z,9.87
2022-10-08T07:06:06.293Z,9.50
2022-10-08T07:08:33.886Z,9.67
2022-10-08T07:11:05.098Z,8.60
2022-10-08T07:13:32.127Z,8.40
2022-10-08T07:16:03.508Z,7.90
2022-10-08T07:18:31.422Z,7.53
2022-10-08T07:20:58.878Z,7.67
2022-10-08T07:23:25.938Z,7.90
2022-10-08T07:25:56.943Z,8.63
2022-10-08T07:28:25.158Z,8.57
2022-10-08T07:30:52.285Z,8.30
2022-10-08T07:33:19.374Z,8.50
2022-10-08T07:35:47.726Z,8.87
2022-10-08T07:38:19.192Z,8.63
2022-10-08T07:40:48.505Z,8.37
2022-10-08T07:43:19.527Z,8.37
2022-10-08T07:45:46.986Z,8.03
2022-10-08T07:48:14.156Z,7.50
2022-10-08T07:50:41.189Z,7.53
2022-10-08T07:53:08.215Z,6.80
2022-10-08T07:55:35.293Z,6.63
2022-10-08T07:58:02.353Z,6.00
2022-10-08T08:00:29.511Z,5.00
2022-10-08T08:02:56.579Z,4.67
2022-10-08T08:05:23.616Z,4.23
2022-10-08T08:07:53.250Z,4.10
2022-10-08T08:10:20.577Z,3.73
2022-10-08T08:12:47.892Z,4.00
2022-10-08T08:15:15.731Z,3.70
2022-10-08T08:17:42.792Z,3.60
2022-10-08T08:20:10.044Z,3.10
2022-10-08T08:22:37.101Z,3.27
2022-10-08T08:25:04.219Z,2.90
2022-10-08T08:27:31.318Z,3.30
2022-10-08T08:29:58.422Z,3.40
2022-10-08T08:32:28.562Z,3.20
2022-10-08T08:34:55.805Z,3.20
2022-10-08T08:37:22.885Z,3.13
2022-10-08T08:39:49.913Z,2.90
2022-10-08T08:42:35.553Z,3.03
2022-10-08T08:45:05.226Z,2.90
2022-10-08T08:47:42.396Z,2.80
2022-10-08T08:50:35.594Z,3.10
2022-10-08T08:53:03.392Z,2.60
2022-10-08T08:55:38.267Z,2.40
2022-10-08T08:58:17.605Z,1.93
2022-10-08T09:00:47.702Z,2.37
2022-10-08T09:03:20.836Z,2.30
2022-10-08T09:05:50.856Z,2.10
2022-10-08T09:08:21.048Z,2.30
2022-10-08T09:10:56.984Z,2.33
2022-10-08T09:13:45.449Z,2.43
2022-10-08T09:16:16.813Z,2.37
2022-10-08T09:18:46.518Z,2.47
2022-10-08T09:21:13.629Z,2.00
2022-10-08T09:23:40.733Z,2.30
2022-10-08T09:26:26.518Z,2.20
2022-10-08T09:28:53.533Z,2.40
2022-10-08T09:31:23.455Z,2.57
2022-10-08T09:33:57.266Z,2.50
2022-10-08T09:36:33.517Z,2.30
2022-10-08T09:39:01.033Z,2.00
2022-10-08T09:41:30.290Z,2.10
2022-10-08T09:44:23.638Z,2.40
2022-10-08T09:47:04.415Z,2.10
2022-10-08T09:49:35.779Z,2.30
2022-10-08T09:52:06.520Z,2.50
2022-10-08T09:54:38.253Z,2.20
2022-10-08T09:57:07.242Z,2.40
2022-10-08T09:59:38.116Z,1.87
2022-10-08T10:02:07.730Z,2.50
2022-10-08T10:04:35.980Z,2.30
2022-10-08T10:07:03.637Z,2.30
2022-10-08T10:09:39.569Z,2.03
2022-10-08T10:12:26.555Z,2.20
2022-10-08T10:14:54.615Z,2.23
2022-10-08T10:17:35.328Z,1.90
2022-10-08T10:20:22.622Z,2.07
2022-10-08T10:22:52.722Z,2.40
2022-10-08T10:25:45.815Z,2.20
2022-10-08T10:28:22.000Z,2.30
2022-10-08T10:30:56.377Z,2.10
2022-10-08T10:33:25.750Z,2.10
2022-10-08T10:35:54.630Z,2.23
2022-10-08T10:38:24.167Z,2.40
2022-10-08T10:41:10.283Z,2.50
2022-10-08T10:43:37.956Z,2.10
2022-10-08T10:46:17.316Z,2.30
2022-10-08T10:48:44.438Z,1.80
2022-10-08T10:51:17.186Z,2.40
2022-10-08T10:53:50.043Z,2.00
2022-10-08T10:56:18.864Z,2.07
2022-10-08T10:58:54.886Z,1.70
2022-10-08T11:01:40.129Z,1.90
2022-10-08T11:04:16.044Z,1.83
2022-10-08T11:07:00.087Z,1.43
2022-10-08T11:09:33.371Z,1.60
2022-10-08T11:12:21.493Z,1.37
2022-10-08T11:14:48.512Z,1.37
2022-10-08T11:17:33.033Z,1.70
2022-10-08T11:20:18.924Z,1.70
2022-10-08T11:22:51.497Z,1.23
2022-10-08T11:25:31.723Z,1.30
2022-10-08T11:28:14.965Z,1.37
2022-10-08T11:31:00.413Z,1.40
2022-10-08T11:33:27.878Z,1.50
2022-10-08T11:35:57.687Z,1.80
2022-10-08T11:38:24.690Z,1.43
2022-10-08T11:40:56.436Z,1.17
2022-10-08T11:43:23.424Z,1.50
2022-10-08T11:46:10.433Z,1.40
2022-10-08T11:48:37.545Z,1.30
2022-10-08T11:51:19.681Z,1.10
2022-10-08T11:54:01.692Z,1.03
2022-10-08T11:56:28.860Z,1.23
2022-10-08T11:58:57.275Z,1.27
2022-10-08T12:01:24.723Z,1.43
2022-10-08T12:04:18.925Z,1.03
2022-10-08T12:06:46.783Z,0.90
2022-10-08T12:09:23.926Z,0.80
2022-10-08T12:11:53.461Z,1.00
2022-10-08T12:14:20.501Z,1.00
2022-10-08T12:16:57.097Z,0.90
2022-10-08T12:19:33.285Z,0.83
2022-10-08T12:22:04.518Z,0.80
2022-10-08T12:24:37.457Z,1.20
2022-10-08T12:27:27.595Z,1.20
2022-10-08T12:29:59.733Z,0.93
2022-10-08T12:32:28.176Z,1.53
2022-10-08T12:34:55.561Z,0.90
2022-10-08T12:37:41.342Z,0.97
2022-10-08T12:40:34.715Z,0.90
2022-10-08T12:43:25.172Z,0.90
2022-10-08T12:45:55.332Z,0.97
2022-10-08T12:48:31.991Z,0.97
2022-10-08T12:50:59.000Z,1.03
2022-10-08T12:53:26.182Z,1.20
2022-10-08T12:55:54.557Z,0.90
2022-10-08T12:58:30.140Z,0.90
2022-10-08T13:00:59.021Z,1.20
2022-10-08T13:03:26.722Z,0.80
2022-10-08T13:05:55.361Z,0.80
2022-10-08T13:08:37.044Z,0.90
2022-10-08T13:11:14.532Z,0.90
2022-10-08T13:13:42.000Z,1.13
2022-10-08T13:16:13.522Z,1.00
2022-10-08T13:18:42.374Z,1.00
2022-10-08T13:21:25.126Z,0.90
2022-10-08T13:23:52.538Z,0.83
2022-10-08T13:26:42.910Z,1.03
2022-10-08T13:29:18.807Z,1.00
2022-10-08T13:31:52.811Z,1.00
2022-10-08T13:34:20.348Z,1.30
2022-10-08T13:36:57.797Z,1.10
2022-10-08T13:39:36.715Z,0.70
2022-10-08T13:42:05.330Z,0.97
2022-10-08T13:44:32.846Z,0.90
2022-10-08T13:47:03.543Z,0.90
2022-10-08T13:49:31.089Z,0.90
2022-10-08T13:51:58.768Z,0.73
2022-10-08T13:54:27.458Z,0.63
2022-10-08T13:56:54.736Z,0.70
2022-10-08T13:59:21.823Z,0.90
2022-10-08T14:01:49.208Z,0.80
2022-10-08T14:04:16.930Z,0.70
2022-10-08T14:06:45.053Z,0.80
2022-10-08T14:09:17.166Z,1.10
2022-10-08T14:11:44.403Z,0.80
2022-10-08T14:14:13.163Z,0.97
2022-10-08T14:16:40.293Z,1.20
2022-10-08T14:19:11.871Z,1.30
2022-10-08T14:21:40.344Z,1.80
2022-10-08T14:24:07.834Z,1.60
2022-10-08T14:26:35.109Z,1.40
2022-10-08T14:29:02.188Z,1.20
2022-10-08T14:31:29.316Z,1.17
2022-10-08T14:33:56.898Z,1.27
2022-10-08T14:36:26.688Z,1.20
2022-10-08T14:38:53.736Z,1.30
2022-10-08T14:41:20.791Z,1.30
2022-10-08T14:43:47.848Z,1.20
2022-10-08T14:46:15.105Z,1.50
2022-10-08T14:48:42.207Z,1.07
2022-10-08T14:51:09.284Z,1.27
2022-10-08T14:53:36.335Z,1.47
2022-10-08T14:56:12.064Z,1.53
2022-10-08T14:58:40.315Z,1.50
2022-10-08T15:01:07.428Z,1.67
2022-10-08T15:03:34.688Z,1.70
2022-10-08T15:06:01.911Z,1.60
2022-10-08T15:08:29.108Z,1.40
2022-10-08T15:10:56.225Z,1.23
2022-10-08T15:13:23.627Z,1.30
2022-10-08T15:15:50.713Z,1.23
2022-10-08T15:18:17.775Z,1.07
2022-10-08T15:20:44.857Z,1.27
2022-10-08T15:23:11.989Z,1.20
2022-10-08T15:25:39.062Z,1.07
2022-10-08T15:28:06.150Z,0.80
2022-10-08T15:30:33.265Z,0.93
2022-10-08T15:33:04.561Z,1.20
2022-10-08T15:35:34.866Z,1.30
2022-10-08T15:38:01.980Z,1.00
2022-10-08T15:40:32.185Z,1.13
2022-10-08T15:42:59.270Z,1.73
2022-10-08T15:45:26.556Z,1.83
2022-10-08T15:47:53.673Z,1.37
2022-10-08T15:50:20.748Z,1.77
2022-10-08T15:52:47.949Z,2.00
2022-10-08T15:55:15.992Z,1.60
2022-10-08T15:57:43.020Z,1.37
2022-10-08T16:00:10.316Z,1.27
2022-10-08T16:02:37.430Z,1.43
2022-10-08T16:05:04.608Z,1.70
2022-10-08T16:07:31.639Z,1.53
2022-10-08T16:09:58.661Z,1.60
2022-10-08T16:12:25.767Z,1.10
2022-10-08T16:14:52.889Z,1.40
2022-10-08T16:17:19.942Z,1.23
2022-10-08T16:19:47.073Z,1.80
2022-10-08T16:22:14.113Z,1.73
2022-10-08T16:24:41.244Z,1.50
2022-10-08T16:27:08.294Z,1.70
2022-10-08T16:29:35.321Z,1.53
2022-10-08T16:32:02.392Z,1.90
2022-10-08T16:34:31.651Z,1.83
2022-10-08T16:37:00.987Z,1.87
2022-10-08T16:39:28.041Z,1.83
2022-10-08T16:41:55.104Z,1.50
2022-10-08T16:44:22.540Z,1.83
2022-10-08T16:46:51.470Z,1.70
2022-10-08T16:49:24.648Z,2.20
2022-10-08T16:51:53.536Z,1.93
2022-10-08T16:54:20.659Z,2.07
2022-10-08T16:56:47.820Z,2.53
2022-10-08T16:59:19.310Z,2.73
2022-10-08T17:01:47.402Z,2.20
2022-10-08T17:04:15.110Z,2.60
2022-10-08T17:06:43.227Z,2.70
2022-10-08T17:09:11.521Z,2.60
2022-10-08T17:11:38.608Z,2.20
2022-10-08T17:14:07.516Z,2.30
2022-10-08T17:16:35.473Z,2.20
2022-10-08T17:19:02.999Z,2.80
2022-10-08T17:21:30.513Z,2.40
2022-10-08T17:23:58.206Z,3.53
2022-10-08T17:26:26.011Z,3.80
2022-10-08T17:28:53.101Z,3.80
2022-10-08T17:31:22.410Z,3.90
2022-10-08T17:33:49.590Z,4.77
2022-10-08T17:36:21.149Z,5.77
2022-10-08T17:38:49.431Z,4.23
2022-10-08T17:41:20.862Z,4.40
2022-10-08T17:43:48.364Z,4.27
2022-10-08T17:46:35.755Z,4.50
2022-10-08T17:49:03.124Z,4.87
2022-10-08T17:51:30.812Z,3.70
2022-10-08T17:53:59.316Z,3.83
2022-10-08T17:56:26.665Z,3.40
2022-10-08T17:58:53.745Z,3.53
2022-10-08T18:01:22.093Z,3.17
2022-10-08T18:03:56.686Z,3.50
2022-10-08T18:06:25.484Z,3.00
2022-10-08T18:08:56.259Z,2.90
2022-10-08T18:11:23.687Z,3.27
2022-10-08T18:13:50.847Z,3.43
2022-10-08T18:16:21.485Z,3.47
2022-10-08T18:18:48.964Z,3.47
2022-10-08T18:21:16.942Z,3.13
2022-10-08T18:23:46.456Z,3.40
2022-10-08T18:26:20.965Z,3.40
2022-10-08T18:28:49.056Z,3.47
2022-10-08T18:31:16.318Z,4.10
2022-10-08T18:33:44.330Z,3.73
2022-10-08T18:36:12.582Z,3.87
2022-10-08T18:38:40.195Z,3.60
2022-10-08T18:41:16.079Z,3.50
2022-10-08T18:43:43.655Z,3.20
2022-10-08T18:46:10.903Z,3.20
2022-10-08T18:48:38.336Z,3.60
2022-10-08T18:51:06.674Z,3.00
2022-10-08T18:53:35.635Z,3.13
2022-10-08T18:56:03.352Z,2.80
2022-10-08T18:58:30.434Z,2.77
2022-10-08T19:00:58.136Z,2.73
2022-10-08T19:03:25.544Z,2.90
2022-10-08T19:05:52.888Z,3.03
2022-10-08T19:08:19.996Z,3.10
2022-10-08T19:10:47.085Z,3.10
2022-10-08T19:13:14.194Z,3.20
2022-10-08T19:15:41.536Z,3.30
2022-10-08T19:18:09.243Z,3.63
2022-10-08T19:20:36.563Z,3.57
2022-10-08T19:23:04.118Z,3.50
2022-10-08T19:25:31.721Z,3.70
2022-10-08T19:27:58.796Z,3.80
2022-10-08T19:30:29.429Z,4.27
2022-10-08T19:32:59.116Z,4.47
2022-10-08T19:35:26.220Z,4.60
2022-10-08T19:37:53.249Z,4.17
2022-10-08T19:40:20.264Z,4.50
2022-10-08T19:42:47.624Z,4.13
2022-10-08T19:45:14.866Z,3.87
2022-10-08T19:47:41.909Z,4.27
2022-10-08T19:50:09.203Z,4.20
2022-10-08T19:52:36.265Z,4.20
2022-10-08T19:55:03.320Z,4.10
2022-10-08T19:57:30.364Z,4.40
2022-10-08T19:59:57.394Z,4.47
2022-10-08T20:02:24.447Z,5.20
2022-10-08T20:04:51.544Z,5.40
2022-10-08T20:07:18.583Z,4.60
2022-10-08T20:09:45.635Z,5.33
2022-10-08T20:12:12.698Z,5.03
2022-10-08T20:14:39.796Z,4.50
2022-10-08T20:17:06.825Z,4.73
2022-10-08T20:19:33.879Z,4.73
2022-10-08T20:22:00.915Z,4.37
2022-10-08T20:24:28.021Z,4.40
2022-10-08T20:26:55.200Z,4.40
2022-10-08T20:29:26.204Z,4.40
2022-10-08T20:31:56.148Z,4.43
2022-10-08T20:34:26.851Z,4.50
2022-10-08T20:36:54.213Z,4.50
2022-10-08T20:39:22.273Z,4.10
2022-10-08T20:41:49.376Z,3.80
2022-10-08T20:44:16.786Z,4.60
2022-10-08T20:46:44.205Z,4.10
2022-10-08T20:49:11.786Z,4.27
2022-10-08T20:51:39.696Z,3.80
2022-10-08T20:54:08.150Z,3.77
2022-10-08T20:56:39.831Z,3.70
2022-10-08T20:59:07.571Z,3.73
2022-10-08T21:01:37.479Z,3.60
2022-10-08T21:04:04.800Z,3.30
2022-10-08T21:06:35.260Z,3.40
2022-10-08T21:09:02.332Z,3.00
2022-10-08T21:11:30.599Z,3.63
2022-10-08T21:13:59.594Z,3.70
2022-10-08T21:16:28.235Z,3.47
2022-10-08T21:18:56.481Z,3.43
2022-10-08T21:21:23.774Z,3.50
2022-10-08T21:23:50.848Z,3.27
2022-10-08T21:26:22.183Z,4.33
2022-10-08T21:28:50.531Z,4.87
2022-10-08T21:31:18.373Z,5.33
2022-10-08T21:33:46.334Z,5.40
2022-10-08T21:36:14.992Z,4.17
2022-10-08T21:38:42.544Z,5.47
2022-10-08T21:41:13.931Z,4.30
2022-10-08T21:43:40.954Z,4.60
2022-10-08T21:46:08.702Z,4.70
2022-10-08T21:48:35.810Z,5.40
2022-10-08T21:51:04.143Z,3.80
2022-10-08T21:53:32.397Z,4.03
2022-10-08T21:56:00.511Z,3.87
2022-10-08T21:58:28.545Z,3.90
2022-10-08T22:00:56.060Z,3.20
2022-10-08T22:03:23.412Z,3.53
2022-10-08T22:05:51.542Z,3.30
2022-10-08T22:08:18.789Z,3.00
2022-10-08T22:10:45.847Z,3.23
2022-10-08T22:13:12.904Z,2.90
2022-10-08T22:15:39.944Z,3.13
2022-10-08T22:18:07.063Z,3.20
2022-10-08T22:20:35.867Z,3.37
2022-10-08T22:23:02.949Z,3.10
2022-10-08T22:25:30.974Z,2.80
2022-10-08T22:27:58.504Z,2.50
2022-10-08T22:30:25.891Z,2.37
2022-10-08T22:32:52.951Z,2.60
2022-10-08T22:35:19.973Z,2.60
2022-10-08T22:37:47.019Z,2.50
2022-10-08T22:40:14.074Z,2.30
2022-10-08T22:42:41.123Z,2.60
2022-10-08T22:45:08.442Z,2.30
2022-10-08T22:47:35.521Z,2.70
2022-10-08T22:50:02.544Z,2.20
2022-10-08T22:52:29.593Z,2.47
2022-10-08T22:54:56.634Z,2.10
2022-10-08T22:57:23.725Z,2.37
2022-10-08T22:59:50.790Z,2.47
2022-10-08T23:02:17.840Z,2.50
2022-10-08T23:04:44.899Z,2.43
2022-10-08T23:07:11.933Z,2.67
2022-10-08T23:09:38.980Z,2.30
2022-10-08T23:12:06.013Z,2.17
2022-10-08T23:14:33.067Z,2.50
2022-10-08T23:17:00.207Z,2.27
2022-10-08T23:19:27.302Z,2.00
2022-10-08T23:21:54.315Z,2.43
2022-10-08T23:24:21.359Z,2.10
2022-10-08T23:26:48.382Z,2.20
2022-10-08T23:29:15.481Z,1.90
2022-10-08T23:31:42.586Z,1.97
2022-10-08T23:34:09.832Z,2.23
2022-10-08T23:36:38.554Z,2.20
2022-10-08T23:39:06.305Z,2.20
2022-10-08T23:41:33.733Z,2.10
2022-10-08T23:44:00.775Z,2.30
2022-10-08T23:46:28.969Z,2.17
2022-10-08T23:48:56.469Z,2.13
2022-10-08T23:51:24.151Z,2.03
2022-10-08T23:53:52.220Z,2.10
2022-10-08T23:56:19.637Z,2.07
2022-10-08T23:58:46.784Z,2.30
